Time;durP1;ratioP1;P1;durP2;ratioP2;P2;SDS_P1;SDS_P2;PMS_P1;PMS_P2;Temp;Humidity;BMP_temperature;BMP_pressure;BME280_temperature;BME280_humidity;BME280_pressure;Samples;Min_cycle;Max_cycle;Signal;HPM_P1;HPM_P2
2021/10/08 00:00:02;;;;;;;;;22.75;20.00;;;;;12.98;47.73;99906.84;6150669;28;97890;-68
2021/10/08 00:03:15;;;;;;;;;21.25;19.75;;;;;12.95;47.41;99915.41;6157789;28;97236;-70
2021/10/08 00:06:18;;;;;;;;;23.80;21.60;;;;;12.81;47.34;99914.56;6142979;28;97437;-70
2021/10/08 00:09:28;;;;;;;;;18.60;17.40;;;;;12.84;47.23;99914.16;6142869;28;97052;-69
2021/10/08 00:12:31;;;;;;;;;19.20;18.60;;;;;12.85;47.54;99907.69;6142213;28;97526;-69
2021/10/08 00:15:34;;;;;;;;;23.00;21.00;;;;;12.85;47.33;99912.28;6159061;28;97218;-70
2021/10/08 00:18:38;;;;;;;;;21.50;19.00;;;;;12.82;47.29;99910.81;6148230;28;97480;-69
2021/10/08 00:21:41;;;;;;;;;21.00;19.00;;;;;12.78;47.54;99912.28;6163071;28;97133;-69
2021/10/08 00:24:46;;;;;;;;;19.60;19.00;;;;;12.74;47.42;99910.22;6165428;28;96572;-68
2021/10/08 00:27:49;;;;;;;;;23.60;19.40;;;;;12.72;47.60;99910.44;6149334;28;97094;-68
2021/10/08 00:30:53;;;;;;;;;20.00;19.00;;;;;12.65;47.60;99903.38;6167912;28;96652;-69
2021/10/08 00:33:56;;;;;;;;;20.00;19.00;;;;;12.62;47.57;99904.59;6149020;28;96497;-70
2021/10/08 00:36:59;;;;;;;;;21.00;19.50;;;;;12.62;47.55;99906.47;6147337;28;97294;-70
2021/10/08 00:40:05;;;;;;;;;20.00;18.00;;;;;12.58;47.66;99903.38;6167831;28;96417;-69
2021/10/08 00:43:09;;;;;;;;;19.00;17.00;;;;;12.60;47.56;99912.13;6140434;28;96596;-70
2021/10/08 00:46:13;;;;;;;;;18.00;17.00;;;;;12.46;47.30;99902.34;6122168;28;96898;-68
2021/10/08 00:49:16;;;;;;;;;21.00;19.00;;;;;12.46;47.67;99921.28;6167347;28;97475;-69
2021/10/08 00:52:19;;;;;;;;;23.40;21.00;;;;;12.49;47.60;99918.16;6149355;28;97975;-69
2021/10/08 00:55:24;;;;;;;;;20.00;19.00;;;;;12.41;47.54;99910.25;6166233;28;96487;-68
2021/10/08 00:58:28;;;;;;;;;20.00;17.50;;;;;12.51;47.56;99925.00;6149073;28;97790;-70
2021/10/08 01:01:31;;;;;;;;;20.80;19.00;;;;;12.49;47.66;99927.09;6165283;28;97508;-70
2021/10/08 01:04:35;;;;;;;;;21.40;19.00;;;;;12.39;47.57;99926.69;6148925;28;96625;-69
2021/10/08 01:07:39;;;;;;;;;21.40;19.40;;;;;12.35;47.77;99933.56;6148088;28;96789;-69
2021/10/08 01:10:46;;;;;;;;;21.50;20.00;;;;;12.29;48.13;99936.25;6164294;28;96611;-69
2021/10/08 01:13:53;;;;;;;;;20.00;16.60;;;;;12.28;47.96;99940.00;6147419;28;97238;-69
2021/10/08 01:16:59;;;;;;;;;19.00;18.40;;;;;12.26;48.14;99939.38;6140267;28;96702;-68
2021/10/08 01:20:05;;;;;;;;;22.00;19.00;;;;;11.86;48.14;99887.97;6165617;28;98248;-68
2021/10/08 01:23:13;;;;;;;;;21.00;18.80;;;;;12.14;48.12;99939.97;6133808;28;96818;-68
2021/10/08 01:26:24;;;;;;;;;20.25;18.25;;;;;12.03;48.48;99932.47;6148261;28;97450;-68
2021/10/08 01:29:28;;;;;;;;;19.50;18.50;;;;;12.10;48.22;99937.91;6124289;28;98913;-69
2021/10/08 01:32:32;;;;;;;;;19.80;17.20;;;;;12.11;48.26;99935.00;6125307;28;96519;-69
2021/10/08 01:35:36;;;;;;;;;20.75;18.75;;;;;12.12;48.10;99946.63;6141022;28;97210;-70
2021/10/08 01:38:41;;;;;;;;;21.00;20.00;;;;;12.05;48.06;99951.19;6123102;28;96786;-69
2021/10/08 01:41:44;;;;;;;;;21.00;19.00;;;;;12.05;48.05;99954.75;6118611;28;98647;-69
2021/10/08 01:44:54;;;;;;;;;24.40;22.00;;;;;12.06;48.17;99952.88;6130842;28;99719;-68
2021/10/08 01:47:58;;;;;;;;;21.50;18.50;;;;;12.03;48.16;99951.41;6147165;28;96589;-70
2021/10/08 01:51:06;;;;;;;;;18.00;17.20;;;;;12.02;48.12;99951.63;6145424;28;97442;-69
2021/10/08 01:54:12;;;;;;;;;18.80;15.20;;;;;12.01;48.12;99947.25;6162624;28;97101;-69
2021/10/08 01:57:16;;;;;;;;;17.40;16.00;;;;;12.02;47.96;99947.03;6133126;28;98707;-69
2021/10/08 02:00:21;;;;;;;;;20.00;18.00;;;;;12.00;48.15;99949.13;6131559;28;100246;-69
2021/10/08 02:03:35;;;;;;;;;20.40;18.60;;;;;11.93;48.12;99945.56;6150023;28;97052;-69
2021/10/08 02:06:42;;;;;;;;;19.60;17.60;;;;;11.83;48.34;99945.09;6126134;28;97820;-69
2021/10/08 02:09:45;;;;;;;;;17.80;17.00;;;;;11.90;48.42;99951.38;6162347;28;97007;-69
2021/10/08 02:12:51;;;;;;;;;19.00;16.00;;;;;11.86;48.49;99958.22;6162800;28;96549;-70
2021/10/08 02:15:55;;;;;;;;;20.75;18.50;;;;;11.74;48.44;99959.84;6148221;28;96392;-69
2021/10/08 02:18:59;;;;;;;;;18.25;17.00;;;;;11.47;48.71;99922.97;6163697;28;96701;-68
2021/10/08 02:22:06;;;;;;;;;18.00;17.00;;;;;11.63;48.79;99958.53;6147432;28;96993;-69
2021/10/08 02:25:14;;;;;;;;;21.40;18.40;;;;;11.67;48.79;99965.22;6140008;28;98303;-68
2021/10/08 02:28:19;;;;;;;;;20.00;18.00;;;;;11.64;49.04;99962.06;6147268;28;97551;-69
2021/10/08 02:31:28;;;;;;;;;23.40;19.40;;;;;11.60;48.99;99967.03;6147224;28;97090;-69
2021/10/08 02:34:34;;;;;;;;;20.20;18.00;;;;;11.60;49.16;99963.50;6153389;28;97352;-69
2021/10/08 02:37:39;;;;;;;;;22.00;18.00;;;;;11.34;49.05;99939.13;6157070;28;97418;-68
2021/10/08 02:40:43;;;;;;;;;18.00;17.60;;;;;11.49;49.14;99969.47;6148535;28;98858;-69
2021/10/08 02:43:46;;;;;;;;;17.00;16.60;;;;;11.48;49.25;99967.84;6148021;28;96607;-68
2021/10/08 02:46:50;;;;;;;;;19.00;16.00;;;;;11.47;49.22;99961.59;6146416;28;97600;-67
2021/10/08 02:49:53;;;;;;;;;19.60;18.20;;;;;11.36;49.15;99955.94;6163849;28;96343;-70
2021/10/08 02:53:00;;;;;;;;;20.80;18.00;;;;;11.37;49.30;99971.94;6163918;28;97357;-68
2021/10/08 02:56:04;;;;;;;;;21.80;18.00;;;;;11.31;49.38;99967.34;6131286;28;99493;-69
2021/10/08 02:59:07;;;;;;;;;18.60;17.60;;;;;11.29;49.52;99982.88;6161946;28;97127;-70
2021/10/08 03:02:11;;;;;;;;;19.00;17.00;;;;;11.27;49.69;99977.69;6163241;28;97363;-69
2021/10/08 03:05:14;;;;;;;;;19.20;17.80;;;;;11.16;49.48;99959.38;6145380;28;96497;-69
2021/10/08 03:08:20;;;;;;;;;20.80;18.40;;;;;11.27;49.33;99977.69;6138222;28;97390;-69
2021/10/08 03:11:23;;;;;;;;;18.50;17.25;;;;;11.07;49.24;99949.75;6122690;28;96424;-67
2021/10/08 03:14:27;;;;;;;;;20.00;17.00;;;;;11.28;49.42;99978.53;6122580;28;97105;-70
2021/10/08 03:17:30;;;;;;;;;21.40;17.00;;;;;11.18;49.59;99976.19;6121185;28;98092;-68
2021/10/08 03:20:35;;;;;;;;;21.40;18.40;;;;;11.18;49.61;99981.59;6135627;28;96924;-68
2021/10/08 03:23:40;;;;;;;;;18.00;16.00;;;;;11.07;49.56;99979.44;6170397;28;96512;-69
2021/10/08 03:26:44;;;;;;;;;19.00;17.00;;;;;11.06;49.70;99982.34;6161746;28;97596;-67
2021/10/08 03:29:47;;;;;;;;;17.25;16.25;;;;;11.07;49.80;99981.31;6165071;28;97776;-70
2021/10/08 03:32:50;;;;;;;;;17.40;16.00;;;;;11.06;49.70;99983.19;6168626;28;96699;-70
2021/10/08 03:35:54;;;;;;;;;19.80;19.40;;;;;11.02;49.75;99984.59;6136563;28;98788;-67
2021/10/08 03:38:59;;;;;;;;;19.80;18.20;;;;;11.07;49.75;99992.94;6166461;28;96898;-69
2021/10/08 03:42:03;;;;;;;;;22.00;19.00;;;;;10.93;49.58;99963.38;6169638;28;97542;-67
2021/10/08 03:45:12;;;;;;;;;20.00;18.00;;;;;11.09;49.37;99993.56;6152561;28;98529;-69
2021/10/08 03:48:23;;;;;;;;;15.60;14.60;;;;;11.13;49.36;100002.13;6155414;28;98463;-68
2021/10/08 03:51:27;;;;;;;;;19.60;16.00;;;;;11.13;49.59;99999.41;6171637;28;97380;-68
2021/10/08 03:54:32;;;;;;;;;19.00;15.60;;;;;11.18;49.36;100008.59;6170773;28;97414;-69
2021/10/08 03:57:37;;;;;;;;;17.80;15.60;;;;;11.11;49.52;99999.59;6154479;28;96673;-69
2021/10/08 04:00:40;;;;;;;;;20.50;19.00;;;;;11.15;49.29;100006.28;6153476;28;97447;-69
2021/10/08 04:03:49;;;;;;;;;18.00;16.75;;;;;10.99;49.39;99985.00;6169555;28;96730;-69
2021/10/08 04:06:53;;;;;;;;;21.80;17.80;;;;;11.09;49.39;100007.06;6169432;28;96526;-68
2021/10/08 04:09:58;;;;;;;;;21.60;19.00;;;;;10.94;49.95;100013.63;6167912;28;97418;-67
2021/10/08 04:13:02;;;;;;;;;18.40;17.00;;;;;10.96;49.85;100009.69;6167776;28;97062;-69
2021/10/08 04:16:10;;;;;;;;;19.40;17.00;;;;;10.97;49.88;100021.31;6158453;28;97609;-69
2021/10/08 04:19:14;;;;;;;;;20.80;18.80;;;;;10.92;50.11;100024.59;6136030;28;99770;-68
2021/10/08 04:22:19;;;;;;;;;18.33;16.00;;;;;10.93;49.97;100022.72;6136030;28;97834;-68
2021/10/08 04:25:24;;;;;;;;;17.00;17.00;;;;;10.89;50.34;100032.25;6144908;28;96271;-68
2021/10/08 04:28:28;;;;;;;;;21.00;20.40;;;;;10.87;50.12;100018.94;6149165;28;96691;-67
2021/10/08 04:31:32;;;;;;;;;18.60;17.40;;;;;10.96;50.09;100036.66;6169347;28;96687;-69
2021/10/08 04:34:36;;;;;;;;;19.00;16.00;;;;;10.91;50.04;100030.19;6155422;28;98008;-69
2021/10/08 04:37:40;;;;;;;;;20.50;17.50;;;;;10.86;50.33;100038.84;6164146;28;96637;-67
2021/10/08 04:40:46;;;;;;;;;19.00;17.25;;;;;10.82;50.20;100040.28;6166212;28;96563;-68
2021/10/08 04:43:50;;;;;;;;;20.40;19.00;;;;;10.70;50.60;100039.16;6148352;28;99884;-67
2021/10/08 04:46:53;;;;;;;;;17.75;16.75;;;;;10.62;50.67;100039.28;6147547;28;98179;-69
2021/10/08 04:49:57;;;;;;;;;20.00;18.00;;;;;10.58;51.05;100038.84;6162753;28;98259;-68
2021/10/08 04:53:12;;;;;;;;;18.60;16.60;;;;;10.40;50.95;100052.78;6164804;28;96619;-68
2021/10/08 04:56:19;;;;;;;;;16.00;15.00;;;;;10.34;51.18;100050.84;6148651;28;96593;-68
2021/10/08 04:59:23;;;;;;;;;19.20;16.80;;;;;10.27;51.27;100051.78;6162235;28;97530;-69
2021/10/08 05:02:26;;;;;;;;;20.00;18.00;;;;;10.37;51.15;100057.72;6145230;28;98961;-68
2021/10/08 05:05:30;;;;;;;;;22.80;19.80;;;;;10.34;51.16;100061.63;6147351;28;97483;-69
2021/10/08 05:08:34;;;;;;;;;19.00;17.00;;;;;10.45;50.87;100068.38;6164682;28;97142;-68
2021/10/08 05:11:40;;;;;;;;;17.50;17.00;;;;;10.46;50.71;100070.03;6162148;28;97546;-67
2021/10/08 05:14:44;;;;;;;;;22.00;18.60;;;;;10.48;50.75;100065.28;6164023;28;96884;-68
2021/10/08 05:17:48;;;;;;;;;20.00;18.00;;;;;10.57;50.54;100074.09;6131651;28;98021;-67
2021/10/08 05:20:52;;;;;;;;;20.00;17.25;;;;;10.43;50.42;100079.34;6160680;28;97300;-69
2021/10/08 05:23:56;;;;;;;;;19.00;16.00;;;;;10.49;50.33;100074.22;6127271;28;98085;-69
2021/10/08 05:27:01;;;;;;;;;20.40;18.40;;;;;10.42;50.72;100085.75;6144372;28;98585;-68
2021/10/08 05:30:06;;;;;;;;;17.00;17.00;;;;;10.57;50.20;100087.56;6164269;28;97443;-68
2021/10/08 05:33:09;;;;;;;;;20.00;18.00;;;;;10.59;50.08;100088.22;6146600;28;98054;-67
2021/10/08 05:36:13;;;;;;;;;20.60;18.00;;;;;10.64;49.99;100096.56;6145567;28;97617;-69
2021/10/08 05:39:17;;;;;;;;;21.80;19.00;;;;;10.48;49.69;100069.84;6144876;28;97428;-70
2021/10/08 05:42:22;;;;;;;;;17.00;16.60;;;;;10.46;50.15;100105.09;6161070;28;96643;-67
2021/10/08 05:45:26;;;;;;;;;19.40;18.40;;;;;10.63;50.00;100103.81;6177875;28;97023;-67
2021/10/08 05:48:30;;;;;;;;;19.00;15.60;;;;;10.83;49.56;100107.53;6154695;28;96662;-68
2021/10/08 05:51:33;;;;;;;;;19.50;16.00;;;;;11.15;49.07;100111.53;6152924;28;97502;-66
2021/10/08 05:54:37;;;;;;;;;20.60;19.00;;;;;11.20;48.54;100097.44;6155897;28;97870;-68
2021/10/08 05:57:41;;;;;;;;;20.00;18.00;;;;;11.34;48.04;100107.31;6187616;28;97298;-66
2021/10/08 06:00:45;;;;;;;;;17.00;16.00;;;;;11.49;47.50;100091.84;6155626;28;97658;-65
2021/10/08 06:03:49;;;;;;;;;19.80;17.80;;;;;11.81;46.87;100108.47;6154824;28;96629;-68
2021/10/08 06:06:53;;;;;;;;;17.60;16.60;;;;;11.93;46.71;100114.97;6176390;28;97216;-67
2021/10/08 06:09:56;;;;;;;;;18.60;17.00;;;;;12.06;46.18;100121.31;6167904;28;96746;-70
2021/10/08 06:13:01;;;;;;;;;18.00;16.80;;;;;12.19;46.00;100128.63;6175696;28;97188;-69
2021/10/08 06:16:05;;;;;;;;;20.20;18.80;;;;;12.55;45.09;100123.75;6162344;28;96620;-71
2021/10/08 06:19:09;;;;;;;;;17.50;17.00;;;;;12.73;44.42;100135.84;6153816;28;97305;-66
2021/10/08 06:22:12;;;;;;;;;23.00;19.75;;;;;13.14;43.54;100133.03;6131683;28;96619;-67
2021/10/08 06:25:16;;;;;;;;;20.20;18.00;;;;;13.75;42.71;100139.84;6128199;28;96629;-65
2021/10/08 06:28:21;;;;;;;;;20.00;18.60;;;;;14.28;40.86;100145.09;6145044;28;97488;-65
2021/10/08 06:31:26;;;;;;;;;20.00;18.00;;;;;15.06;40.32;100141.13;6161418;28;96489;-66
2021/10/08 06:34:32;;;;;;;;;21.00;19.75;;;;;15.56;38.40;100141.97;6160982;28;97274;-67
2021/10/08 06:37:36;;;;;;;;;19.00;18.60;;;;;16.34;37.49;100146.78;6142766;28;96822;-65
2021/10/08 06:40:41;;;;;;;;;18.60;18.00;;;;;17.53;36.04;100138.53;6144335;28;96774;-66
2021/10/08 06:43:49;;;;;;;;;22.50;20.50;;;;;18.67;33.78;100147.03;6144268;28;96928;-66
2021/10/08 06:46:58;;;;;;;;;22.25;20.00;;;;;19.24;32.83;100150.53;6160880;28;97235;-67
2021/10/08 06:50:04;;;;;;;;;22.80;20.80;;;;;20.28;30.80;100144.16;6144447;28;98155;-67
2021/10/08 06:53:09;;;;;;;;;22.00;20.00;;;;;21.79;28.71;100155.06;6144957;28;96614;-67
2021/10/08 06:56:14;;;;;;;;;24.00;22.00;;;;;22.93;26.10;100156.13;6128677;28;97820;-67
2021/10/08 06:59:36;;;;;;;;;22.40;20.40;;;;;24.75;24.41;100153.13;6161377;28;97458;-67
2021/10/08 07:02:49;;;;;;;;;18.20;18.00;;;;;26.07;23.68;100153.75;6162221;28;96636;-66
2021/10/08 07:05:53;;;;;;;;;23.60;23.00;;;;;27.07;21.97;100158.34;6161386;28;96672;-66
2021/10/08 07:08:57;;;;;;;;;23.80;21.00;;;;;27.88;20.79;100155.06;6161366;28;98550;-67
2021/10/08 07:12:00;;;;;;;;;22.60;19.00;;;;;28.62;20.46;100160.53;6127397;28;98274;-67
2021/10/08 07:15:08;;;;;;;;;23.00;19.50;;;;;29.04;19.30;100164.91;6152233;28;97430;-67
2021/10/08 07:18:24;;;;;;;;;23.00;20.60;;;;;29.25;19.74;100166.91;6127803;28;97729;-67
2021/10/08 07:21:27;;;;;;;;;25.00;21.00;;;;;29.38;19.44;100170.78;6162157;28;96527;-66
2021/10/08 07:24:33;;;;;;;;;22.60;19.60;;;;;29.88;18.96;100179.78;6162796;28;97250;-67
2021/10/08 07:27:37;;;;;;;;;20.80;19.40;;;;;30.29;18.87;100164.81;6161920;28;97174;-65
2021/10/08 07:30:42;;;;;;;;;25.40;22.00;;;;;30.74;17.89;100168.25;6144003;28;97937;-65
2021/10/08 07:33:45;;;;;;;;;21.00;20.50;;;;;30.69;18.17;100168.41;6144895;28;97625;-65
2021/10/08 07:36:49;;;;;;;;;23.00;20.00;;;;;30.57;18.13;100166.22;6144670;28;97381;-66
2021/10/08 07:39:54;;;;;;;;;23.20;20.60;;;;;30.66;17.69;100169.03;6161081;28;96694;-68
2021/10/08 07:42:57;;;;;;;;;21.00;20.00;;;;;30.76;17.91;100175.13;6161923;28;96711;-66
2021/10/08 07:46:02;;;;;;;;;19.25;18.25;;;;;30.91;18.08;100176.63;6144162;28;97482;-68
2021/10/08 07:49:05;;;;;;;;;24.40;21.00;;;;;31.14;17.92;100175.34;6162079;28;97499;-68
2021/10/08 07:52:09;;;;;;;;;21.00;20.00;;;;;31.61;17.70;100184.72;6161836;28;97063;-67
2021/10/08 07:55:13;;;;;;;;;24.50;21.00;;;;;31.44;17.32;100178.28;6162339;28;97382;-66
2021/10/08 07:58:16;;;;;;;;;20.60;18.60;;;;;30.35;17.58;100158.75;6162757;28;97092;-66
2021/10/08 08:01:21;;;;;;;;;19.20;18.20;;;;;29.91;18.27;100168.03;6162860;28;97606;-66
2021/10/08 08:04:24;;;;;;;;;20.60;18.40;;;;;30.29;18.91;100168.41;6145239;28;96943;-67
2021/10/08 08:07:27;;;;;;;;;20.75;18.75;;;;;30.43;18.15;100173.84;6146123;28;97142;-66
2021/10/08 08:10:31;;;;;;;;;18.00;18.00;;;;;30.98;18.17;100180.53;6148281;28;96715;-66
2021/10/08 08:13:34;;;;;;;;;21.00;19.00;;;;;30.71;17.63;100186.41;6147391;28;98482;-68
2021/10/08 08:16:39;;;;;;;;;22.00;19.00;;;;;30.74;18.12;100182.97;6166483;28;96595;-67
2021/10/08 08:19:43;;;;;;;;;23.00;20.00;;;;;30.49;18.48;100173.41;6165479;28;97137;-68
2021/10/08 08:22:46;;;;;;;;;21.00;19.00;;;;;30.33;18.75;100174.97;6147799;28;98693;-67
2021/10/08 08:25:51;;;;;;;;;20.00;17.60;;;;;30.10;18.33;100179.75;6148431;28;98010;-66
2021/10/08 08:28:55;;;;;;;;;21.00;19.75;;;;;30.12;18.78;100176.66;6148529;28;97508;-68
2021/10/08 08:31:59;;;;;;;;;21.20;19.20;;;;;30.51;18.41;100181.44;6131797;28;97913;-66
2021/10/08 08:35:05;;;;;;;;;22.80;18.80;;;;;31.03;18.22;100182.41;6147329;28;96831;-68
2021/10/08 08:38:08;;;;;;;;;21.00;19.00;;;;;31.48;17.54;100184.84;6165455;28;97553;-68
2021/10/08 08:41:13;;;;;;;;;19.75;17.00;;;;;31.70;17.49;100187.47;6165699;28;97193;-67
2021/10/08 08:44:35;;;;;;;;;24.00;21.00;;;;;32.09;17.33;100186.41;6165657;28;96508;-68
2021/10/08 08:47:40;;;;;;;;;20.00;18.60;;;;;31.76;16.58;100181.41;6165206;28;97205;-67
2021/10/08 08:50:46;;;;;;;;;18.00;17.50;;;;;31.45;17.04;100177.97;6148241;28;99862;-67
2021/10/08 08:53:49;;;;;;;;;19.00;18.00;;;;;30.61;17.17;100158.03;6147487;28;99667;-68
2021/10/08 08:56:53;;;;;;;;;18.00;17.00;;;;;30.61;17.83;100174.75;6147225;28;97254;-68
2021/10/08 08:59:58;;;;;;;;;23.75;19.75;;;;;30.64;17.88;100174.13;6163273;28;97084;-67
2021/10/08 09:03:06;;;;;;;;;22.50;19.50;;;;;30.63;17.65;100176.06;6146045;28;99662;-66
2021/10/08 09:06:09;;;;;;;;;17.00;16.20;;;;;30.75;17.61;100181.00;6164285;28;97488;-68
2021/10/08 09:09:18;;;;;;;;;22.00;18.00;;;;;30.07;17.78;100174.84;6162098;28;97488;-67
2021/10/08 09:12:21;;;;;;;;;18.60;16.00;;;;;29.87;18.17;100172.56;6164905;28;96519;-67
2021/10/08 09:15:28;;;;;;;;;18.00;16.60;;;;;30.06;18.20;100181.53;6164613;28;98164;-68
2021/10/08 09:18:37;;;;;;;;;19.60;19.40;;;;;29.55;18.30;100170.91;6145451;28;98151;-67
2021/10/08 09:21:41;;;;;;;;;19.40;18.40;;;;;29.60;18.95;100183.84;6147258;28;97103;-66
2021/10/08 09:24:44;;;;;;;;;18.00;17.00;;;;;29.51;18.22;100181.03;6164730;28;97537;-68
2021/10/08 09:27:49;;;;;;;;;19.50;18.00;;;;;29.14;18.63;100181.31;6163325;28;97460;-66
2021/10/08 09:30:54;;;;;;;;;19.60;17.60;;;;;28.70;19.10;100182.00;6148534;28;96858;-71
2021/10/08 09:34:16;;;;;;;;;20.75;18.75;;;;;29.04;19.03;100182.38;6164285;28;96544;-68
2021/10/08 09:37:29;;;;;;;;;16.00;16.00;;;;;29.12;19.31;100175.28;6160923;28;97520;-66
2021/10/08 09:40:34;;;;;;;;;19.20;16.80;;;;;28.83;18.87;100186.78;6164537;28;97502;-65
2021/10/08 09:43:38;;;;;;;;;18.00;17.80;;;;;27.97;19.56;100175.41;6158350;28;96607;-66
2021/10/08 09:46:41;;;;;;;;;20.00;18.00;;;;;28.08;20.32;100187.13;6163370;28;96840;-66
2021/10/08 09:49:48;;;;;;;;;18.50;18.00;;;;;28.22;19.78;100176.91;6146098;28;97839;-66
2021/10/08 09:52:52;;;;;;;;;18.25;17.00;;;;;28.49;19.66;100183.59;6161673;28;98626;-68
2021/10/08 09:55:56;;;;;;;;;18.00;16.00;;;;;27.95;19.42;100179.63;6164895;28;97478;-65
2021/10/08 09:59:01;;;;;;;;;19.00;17.80;;;;;28.21;20.03;100172.47;6168254;28;97239;-65
2021/10/08 10:02:26;;;;;;;;;19.60;17.00;;;;;28.34;19.90;100168.91;6174102;28;97125;-67
2021/10/08 10:05:31;;;;;;;;;15.25;14.25;;;;;28.82;19.61;100172.06;6170677;28;97205;-65
2021/10/08 10:08:39;;;;;;;;;17.00;15.40;;;;;29.49;19.51;100176.91;6162792;28;96865;-70
2021/10/08 10:11:42;;;;;;;;;18.00;17.00;;;;;29.99;18.37;100170.06;6160106;28;97683;-66
2021/10/08 10:14:49;;;;;;;;;18.00;15.20;;;;;30.17;17.44;100175.69;6158216;28;98524;-64
2021/10/08 10:17:52;;;;;;;;;19.00;18.00;;;;;30.19;17.58;100168.69;6161846;28;97208;-67
2021/10/08 10:20:57;;;;;;;;;16.40;15.40;;;;;30.03;17.51;100181.38;6165193;28;96671;-71
2021/10/08 10:24:02;;;;;;;;;18.40;16.00;;;;;28.95;18.48;100164.81;6156274;28;98819;-68
2021/10/08 10:27:06;;;;;;;;;19.00;17.00;;;;;28.11;18.66;100172.66;6163129;28;97878;-68
2021/10/08 10:30:10;;;;;;;;;17.00;14.00;;;;;27.84;19.38;100170.66;6168231;28;97500;-66
2021/10/08 10:33:14;;;;;;;;;14.00;13.00;;;;;28.22;20.17;100162.19;6163739;28;97226;-70
2021/10/08 10:36:27;;;;;;;;;16.00;14.00;;;;;28.71;17.59;100165.09;6151549;28;96750;-65
2021/10/08 10:39:30;;;;;;;;;15.25;13.50;;;;;28.12;17.59;100166.00;6151577;28;98682;-68
2021/10/08 10:42:33;;;;;;;;;14.00;12.25;;;;;27.32;18.64;100168.22;6162498;28;97600;-63
2021/10/08 10:45:37;;;;;;;;;14.60;14.00;;;;;26.48;19.47;100158.84;6161527;28;96661;-65
2021/10/08 10:48:45;;;;;;;;;17.00;14.60;;;;;26.23;19.91;100160.81;6148171;28;97362;-69
2021/10/08 10:52:12;;;;;;;;;16.40;15.60;;;;;26.47;20.26;100162.72;6149245;28;97635;-68
2021/10/08 10:55:16;;;;;;;;;15.80;15.40;;;;;26.34;20.15;100144.91;6160459;28;97638;-65
2021/10/08 10:58:19;;;;;;;;;15.00;15.00;;;;;27.03;19.17;100169.16;6141576;28;100048;-68
2021/10/08 11:01:45;;;;;;;;;23.25;18.25;;;;;27.47;18.92;100162.38;6153733;28;97645;-65
2021/10/08 11:04:54;;;;;;;;;19.00;17.00;;;;;27.59;18.73;100168.31;6159860;28;97136;-65
2021/10/08 11:08:12;;;;;;;;;16.00;14.60;;;;;27.42;18.42;100168.00;6147098;28;97785;-66
2021/10/08 11:11:17;;;;;;;;;17.00;16.00;;;;;27.55;18.25;100170.88;6164297;28;97519;-65
2021/10/08 11:14:22;;;;;;;;;15.40;15.00;;;;;27.99;18.63;100172.31;6167127;28;97463;-65
2021/10/08 11:17:48;;;;;;;;;17.00;16.00;;;;;28.09;17.34;100160.22;6174349;28;97530;-67
2021/10/08 11:20:51;;;;;;;;;18.00;15.50;;;;;27.95;18.62;100161.00;6162277;28;97623;-68
2021/10/08 11:24:00;;;;;;;;;18.00;15.00;;;;;28.00;18.13;100162.88;6182981;28;96548;-67
2021/10/08 11:27:05;;;;;;;;;16.00;14.00;;;;;27.82;17.72;100163.75;6169590;28;97510;-67
2021/10/08 11:30:10;;;;;;;;;17.60;15.00;;;;;28.03;18.61;100159.50;6158911;28;96719;-68
2021/10/08 11:33:13;;;;;;;;;19.25;16.50;;;;;28.53;17.32;100157.69;6164038;28;96707;-65
2021/10/08 11:36:25;;;;;;;;;18.00;17.25;;;;;28.57;17.28;100155.09;6159396;28;99639;-66
2021/10/08 11:39:32;;;;;;;;;17.00;16.00;;;;;28.46;17.08;100145.34;6174934;28;98134;-66
2021/10/08 11:42:38;;;;;;;;;18.00;17.00;;;;;28.87;17.67;100148.91;6168796;28;97520;-65
2021/10/08 11:45:47;;;;;;;;;16.80;15.40;;;;;29.29;17.06;100155.97;6161987;28;97084;-68
2021/10/08 11:48:57;;;;;;;;;16.00;15.00;;;;;29.38;16.93;100167.16;6169177;28;96612;-66
2021/10/08 11:52:01;;;;;;;;;16.00;14.00;;;;;29.24;17.08;100148.59;6162742;28;96627;-69
2021/10/08 11:55:25;;;;;;;;;18.00;16.00;;;;;28.93;17.17;100155.97;6132267;28;99176;-67
2021/10/08 11:58:31;;;;;;;;;15.00;13.80;;;;;28.98;17.20;100141.97;6163010;28;98231;-67
2021/10/08 12:01:34;;;;;;;;;19.40;16.00;;;;;29.44;17.15;100165.91;6159631;28;97666;-66
2021/10/08 12:04:37;;;;;;;;;16.00;14.00;;;;;28.97;16.20;100154.25;6162079;28;98195;-71
2021/10/08 12:07:54;;;;;;;;;17.00;15.00;;;;;28.11;16.85;100156.03;6160242;28;97489;-68
2021/10/08 12:11:01;;;;;;;;;15.20;15.00;;;;;27.96;18.27;100157.09;6162724;28;98028;-68
2021/10/08 12:14:05;;;;;;;;;15.40;14.00;;;;;27.71;17.92;100152.03;6129132;28;97388;-69
2021/10/08 12:17:13;;;;;;;;;14.00;14.00;;;;;27.53;17.78;100150.13;6163182;28;97411;-71
2021/10/08 12:20:23;;;;;;;;;15.40;14.00;;;;;27.19;17.96;100153.16;6148884;28;97552;-71
2021/10/08 12:23:26;;;;;;;;;16.40;15.40;;;;;26.68;18.56;100123.41;6129379;28;98281;-68
2021/10/08 12:26:33;;;;;;;;;17.00;15.00;;;;;26.62;19.12;100149.53;6162039;28;97142;-70
2021/10/08 12:29:40;;;;;;;;;16.75;15.50;;;;;26.64;18.87;100152.81;6160642;28;98063;-69
2021/10/08 12:33:02;;;;;;;;;14.80;12.80;;;;;26.49;19.54;100154.94;6162435;28;96678;-69
2021/10/08 12:36:20;;;;;;;;;16.40;15.00;;;;;26.60;19.58;100149.00;6161095;28;97036;-69
2021/10/08 12:39:23;;;;;;;;;15.40;13.40;;;;;26.50;19.26;100151.06;6129675;28;97325;-69
2021/10/08 12:42:33;;;;;;;;;15.00;13.25;;;;;26.31;19.29;100123.38;6162081;28;96528;-67
2021/10/08 12:45:43;;;;;;;;;14.00;12.40;;;;;26.41;18.82;100152.84;6149677;28;97593;-70
2021/10/08 12:48:57;;;;;;;;;15.00;14.00;;;;;26.55;20.22;100142.69;6149644;28;97951;-71
2021/10/08 12:52:00;;;;;;;;;12.60;12.00;;;;;26.21;19.45;100149.22;6161350;28;97338;-71
2021/10/08 12:55:09;;;;;;;;;14.20;13.20;;;;;25.80;20.00;100159.81;6128907;28;96660;-69
2021/10/08 12:58:20;;;;;;;;;14.00;14.00;;;;;25.46;20.15;100154.31;6161865;28;97528;-68
2021/10/08 13:01:23;;;;;;;;;13.00;13.00;;;;;25.36;20.34;100151.63;6160666;28;97489;-67
2021/10/08 13:04:30;;;;;;;;;13.00;11.00;;;;;24.92;20.46;100154.44;6162362;28;97345;-67
2021/10/08 13:07:33;;;;;;;;;12.50;12.50;;;;;24.63;20.74;100144.38;6161726;28;96801;-70
2021/10/08 13:10:53;;;;;;;;;14.00;12.00;;;;;24.54;20.92;100149.66;6149906;28;98139;-70
2021/10/08 13:13:58;;;;;;;;;13.40;12.40;;;;;24.55;20.81;100143.84;6161680;28;97586;-69
2021/10/08 13:17:17;;;;;;;;;14.40;13.00;;;;;24.26;20.95;100133.78;6162408;28;96868;-69
2021/10/08 13:20:21;;;;;;;;;16.00;15.00;;;;;24.09;21.61;100121.13;6161741;28;98081;-72
2021/10/08 13:23:25;;;;;;;;;12.60;12.00;;;;;23.88;21.39;100132.50;6153778;28;97094;-67
2021/10/08 13:26:28;;;;;;;;;17.40;14.00;;;;;23.84;21.78;100157.03;6161043;28;97194;-69
2021/10/08 13:29:33;;;;;;;;;13.40;11.80;;;;;23.45;21.88;100144.94;6132507;28;97816;-72
2021/10/08 13:32:36;;;;;;;;;14.00;13.00;;;;;23.34;22.34;100144.09;6163330;28;97542;-72
2021/10/08 13:35:39;;;;;;;;;12.80;12.00;;;;;23.29;21.86;100138.59;6162098;28;96571;-72
2021/10/08 13:38:43;;;;;;;;;13.00;12.00;;;;;23.21;22.64;100134.44;6139165;28;96805;-70
2021/10/08 13:41:46;;;;;;;;;12.40;12.40;;;;;23.00;22.40;100127.28;6162483;28;98163;-67
2021/10/08 13:44:51;;;;;;;;;12.00;12.00;;;;;22.71;22.05;100137.94;6161213;28;96766;-67
2021/10/08 13:47:54;;;;;;;;;12.00;12.00;;;;;22.09;22.56;100062.97;6134111;28;96723;-66
2021/10/08 13:50:57;;;;;;;;;12.00;11.40;;;;;22.35;22.12;100131.47;6132090;28;97790;-66
2021/10/08 13:54:00;;;;;;;;;12.00;11.00;;;;;22.22;22.13;100122.91;6141575;28;97336;-66
2021/10/08 13:57:04;;;;;;;;;12.25;11.00;;;;;22.14;22.55;100135.22;6162430;28;96684;-66
2021/10/08 14:00:10;;;;;;;;;14.40;12.00;;;;;22.08;22.93;100136.31;6160365;28;96618;-67
2021/10/08 14:03:32;;;;;;;;;13.00;11.00;;;;;21.74;22.67;100093.78;6145779;28;100502;-66
2021/10/08 14:06:57;;;;;;;;;13.40;12.40;;;;;21.86;22.04;100136.41;6161227;28;97562;-67